Aeroporto :
LOGIN :

Iscrizione | Disclaimer

   EN    FR    IT 

 










Sommario :    VFR   VFR Marginale   IFR   IFR Intensivo   IFR Molto Intensivo
Visibilità : 
Base nubi : 
>= 8 km
>= 3000ft
5 / 8 km
1000 / 3000 ft
1500m / 5 km
500 / 1000 ft
800 / 1500m
200 / 500 ft
< 800m
< 200 ft
Simboli :   Temporali  Nebbia  Neve Forte  Precipitazioni Forti  Vento > 20 kt
SIGMETs :   Varie  Temporali  Ghiacco  Turbolenza  Onda orograficha  Ceneri Vulcaniche






- Altitudine del aeroporto : 348 ft
- Codice IATA : STN


EGSS - London Stansted

ULTIMO METAR :
  • 291550Z AUTO VRB03KT 0650 R04/1300 FG VV/// 06/05 Q1026

METARs OBSOLETI :
  • 291520Z AUTO VRB03KT 0300 R04/0500 FG VV/// 06/06 Q1026
  • 291450Z AUTO 15002KT 0400 R04/0600 FG VV/// 06/06 Q1026
  • 291420Z AUTO VRB02KT 0400 R04/0750 FG VV/// 06/06 Q1026
  • 291350Z AUTO VRB03KT 0450 R04/0750 FG VV/// 06/06 Q1026
  • 291320Z AUTO VRB02KT 0600 R04/0800 FG VV/// 06/06 Q1026

TAF AMD TAF EGSS
Valido dal 29 a 15 ore il 30 a 18 ore UTC


291537Z 2915/3018 VRB03KT 0300 FG VV///
PROB30
TEMPO 2915/3008 2000 BR BKN002
BECMG 3008/3011 26010KT 9999 NSW BKN015
TEMPO 3011/3018 8000 -RA BKN009
ATIS : +44 1279 669 325



MetMap, La meteo Aeronautica in un colpo d'occhio ! - Copyright ORBIFLY Dicembre 2007 - Disclaimer

ORBIFLY MET'MAP TEAM :

Programmazione e sviluppo : Alexandra Zaïnal
Concezione : Baudouin d'Aumeries
Aiuto per la programmazione : Marc-Olivier Méhu
Supporto tecnico e logistico : Manuel Goepfert
Aiuto per la traduzione : Arnaldo La Scala

Contatto : metmap@orbifly.com




FONTI E CREDITI :

   NOAA